Latest Weather Observations for Cessnock Airport

IDN60801

Issued at 8:32 pm EDT Tuesday 9 February 2016 (issued every 30 minutes, with the page automatically refreshed every 10 minutes)

About weather observations | Map of weather stations | Latest weather observations for NSW | Other Formats
Station Details ID: 061260 Name: CESSNOCK AIRPORT AWS Lat: -32.79 Lon: 151.34 Height: 61.0 m
Data from the previous 72 hours. | See also: Recent months at Cessnock Airport
Date/Time
EDT
Temp
°C
App
Temp
°C
Dew
Point
Rel
Hum
%
Delta-T
°C
Wind Press
QNH
hPa
Press
MSL
hPa
Rain
since 9 am
mm
Dir
 
Spd
km/h
Gust
km/h
Spd
kts
Gust
kts
09/08:30pm 21.7 22.0 17.9 79 2.4 SSE 13 17 7 9 1018.3 1018.1 0.0
09/08:00pm 22.6 22.8 17.7 74 3.0 SE 13 15 7 8 1018.3 1018.1 0.0
09/07:30pm 23.4 23.7 16.9 67 4.0 SE 11 15 6 8 1018.0 1017.8 0.0
09/07:00pm 24.3 23.0 16.8 63 4.6 SE 19 28 10 15 1017.8 1017.6 0.0
09/06:30pm 24.9 23.3 16.1 58 5.4 SE 19 24 10 13 1017.4 1017.2 0.0
09/06:00pm 25.8 23.9 15.8 54 6.1 SE 20 26 11 14 1017.4 1017.2 0.0
09/05:30pm 25.9 23.5 15.3 52 6.4 SE 22 28 12 15 1017.3 1017.1 0.0
09/05:00pm 26.5 24.0 15.2 49 6.8 SE 22 32 12 17 1017.4 1017.2 0.0
09/04:30pm 26.8 24.1 15.5 50 6.9 SE 24 33 13 18 1017.5 1017.3 0.0
09/04:00pm 27.3 25.7 16.6 52 6.6 SSE 20 26 11 14 1017.6 1017.4 0.0
09/03:30pm 27.5 25.6 16.8 52 6.7 SSE 22 33 12 18 1017.8 1017.6 0.0
09/03:00pm 26.7 25.8 17.8 58 5.6 SE 19 26 10 14 1018.2 1018.0 0.0
09/02:30pm 27.0 25.9 17.8 57 5.8 SE 20 28 11 15 1018.6 1018.4 0.0
09/02:00pm 25.6 24.0 17.5 61 5.1 SE 22 35 12 19 1019.0 1018.8 0.0
09/01:30pm 25.0 23.5 17.7 64 4.6 SSE 22 33 12 18 1019.3 1019.1 0.0
09/01:00pm 26.3 25.2 19.4 66 4.5 SSE 24 32 13 17 1019.4 1019.2 0.0
09/12:30pm 26.0 25.6 17.1 58 5.6 ESE 15 26 8 14 1019.5 1019.3 0.0
09/12:00pm 26.6 26.5 17.9 59 5.5 SE 15 20 8 11 1019.6 1019.4 0.0
09/11:30am 26.4 25.9 17.7 58 5.5 ESE 17 26 9 14 1019.8 1019.6 0.0
09/11:00am 26.1 25.7 18.0 61 5.1 ESE 17 26 9 14 1020.0 1019.8 0.0
09/10:30am 24.9 24.2 17.4 63 4.7 SE 17 24 9 13 1020.0 1019.8 0.0
09/10:00am 23.5 22.0 16.8 66 4.1 S 20 24 11 13 1020.0 1019.8 0.0
09/09:30am 24.6 24.1 17.8 66 4.3 SE 17 26 9 14 1019.9 1019.7 0.0
09/09:00am 23.7 24.5 19.0 75 3.0 SSE 13 20 7 11 1019.9 1019.7 0.0
09/08:30am 21.6 22.5 18.4 82 2.0 S 11 17 6 9 1019.7 1019.5 0.0
09/08:00am 19.5 22.2 18.7 95 0.5 NE 2 7 1 4 1019.5 1019.3 0.0
09/07:30am 18.5 20.9 18.0 97 0.3 NE 2 6 1 3 1019.2 1019.0 0.0
09/07:00am 18.6 21.2 18.4 99 0.1 SW 2 6 1 3 1018.8 1018.6 0.0
09/06:30am 17.9 20.6 17.7 99 0.1 CALM 0 0 0 0 1018.4 1018.2 0.0
09/06:00am 17.5 20.0 17.3 99 0.1 CALM 0 6 0 3 1018.2 1018.0 0.0
09/05:30am 18.0 20.7 17.8 99 0.1 CALM 0 0 0 0 1017.8 1017.6 0.0
09/05:00am 16.7 18.9 16.5 99 0.1 CALM 0 0 0 0 1017.7 1017.5 0.0
09/04:30am 16.1 18.0 15.8 98 0.2 CALM 0 4 0 2 1017.7 1017.5 0.0
09/04:00am 16.8 19.0 16.6 99 0.1 CALM 0 0 0 0 1017.6 1017.4 0.0
09/03:30am 16.8 17.9 16.5 98 0.2 SW 6 7 3 4 1017.6 1017.4 0.0
09/03:00am 16.5 17.4 16.2 98 0.2 SW 6 11 3 6 1017.9 1017.7 0.0
09/02:30am 16.4 18.5 16.2 99 0.1 CALM 0 0 0 0 1017.9 1017.7 0.0
09/02:00am 16.4 18.4 16.1 98 0.2 CALM 0 0 0 0 1018.0 1017.8 0.0
09/01:30am 16.4 18.4 16.1 98 0.2 CALM 0 0 0 0 1018.3 1018.1 0.0
09/01:00am 16.5 18.6 16.2 98 0.2 CALM 0 4 0 2 1018.5 1018.3 0.0
09/12:30am 16.8 17.8 16.3 97 0.3 SW 6 7 3 4 1018.6 1018.4 0.0
09/12:00am 17.2 18.3 16.6 96 0.4 SW 6 9 3 5 1018.7 1018.5 0.0
 
Date/Time
EDT
Temp
°C
App
Temp
°C
Dew
Point
Rel
Hum
%
Delta-T
°C
Wind Press
QNH
hPa
Press
MSL
hPa
Rain
since 9 am
mm
Dir
 
Spd
km/h
Gust
km/h
Spd
kts
Gust
kts
08/11:30pm 17.6 18.8 16.8 95 0.5 SW 6 7 3 4 1018.7 1018.5 0.0
08/11:00pm 17.8 20.1 16.8 94 0.6 CALM 0 0 0 0 1018.7 1018.5 0.0
08/10:30pm 18.0 18.9 16.5 91 0.9 SW 7 9 4 5 1018.6 1018.4 0.0
08/10:00pm 19.0 20.3 17.5 91 0.9 SSW 7 9 4 5 1018.5 1018.3 0.0
08/09:30pm 20.4 21.9 18.0 86 1.5 SSE 7 9 4 5 1018.3 1018.1 0.0
08/09:00pm 20.5 21.6 17.9 85 1.6 SSE 9 9 5 5 1018.0 1017.8 0.0
08/08:30pm 22.1 23.2 17.9 77 2.6 SE 9 11 5 6 1017.7 1017.5 0.0
08/08:00pm 22.9 23.5 17.8 73 3.2 SE 11 15 6 8 1017.5 1017.3 0.0
08/07:30pm 23.9 23.9 18.1 70 3.6 ESE 15 20 8 11 1017.3 1017.1 0.0
08/07:00pm 24.8 24.5 18.3 67 4.1 ESE 17 26 9 14 1017.0 1016.8 0.0
08/06:30pm 25.5 24.8 18.2 64 4.6 ESE 19 26 10 14 1016.5 1016.2 0.0
08/06:00pm 26.2 25.0 17.6 59 5.4 SE 20 26 11 14 1016.6 1016.3 0.0
08/05:30pm 26.6 25.5 17.7 58 5.6 SE 20 28 11 15 1016.5 1016.2 0.0
08/05:00pm 27.4 27.4 18.9 59 5.5 SE 17 32 9 17 1016.4 1016.1 0.0
08/04:30pm 26.8 25.6 18.4 60 5.4 SE 22 28 12 15 1016.5 1016.2 0.0
08/04:00pm 27.6 26.4 17.5 54 6.4 SE 20 28 11 15 1016.6 1016.3 0.0
08/03:30pm 27.2 25.8 17.9 56 5.9 SSE 22 32 12 17 1016.7 1016.5 0.0
08/03:00pm 27.1 26.6 18.7 60 5.4 SE 19 30 10 16 1016.7 1016.5 0.0
08/02:30pm 27.2 26.3 17.7 56 6.0 SE 19 26 10 14 1017.0 1016.8 0.0
08/02:00pm 27.2 26.8 19.0 61 5.3 SSE 19 26 10 14 1017.2 1017.0 0.0
08/01:30pm 26.8 26.9 18.4 60 5.4 SE 15 22 8 12 1017.5 1017.3 0.0
08/01:00pm 26.5 27.1 19.4 65 4.6 SE 15 24 8 13 1017.9 1017.7 0.0
08/12:30pm 24.5 25.7 20.6 79 2.6 ESE 15 20 8 11 1018.3 1018.1 0.0
08/12:00pm 24.7 26.4 19.3 72 3.5 SSW 9 17 5 9 1018.5 1018.3 0.0
08/11:30am 25.0 26.5 19.8 73 3.4 ESE 11 15 6 8 1018.6 1018.4 0.0
08/11:00am 24.4 24.8 19.0 72 3.4 S 15 22 8 12 1018.6 1018.4 0.0
08/10:30am 24.1 23.8 18.3 70 3.7 S 17 26 9 14 1018.6 1018.4 0.0
08/10:00am 23.7 24.7 18.6 73 3.2 S 11 17 6 9 1018.4 1018.2 0.0
08/09:30am 23.2 23.5 17.9 72 3.3 SSW 13 17 7 9 1018.4 1018.2 0.0
08/09:00am 22.9 23.4 18.4 76 2.8 S 13 20 7 11 1018.3 1018.1 0.0
08/08:30am 20.6 22.6 17.8 84 1.7 ENE 4 7 2 4 1018.3 1018.1 0.0
08/08:00am 18.3 19.9 17.8 97 0.3 NNE 6 7 3 4 1018.1 1017.9 0.0
08/07:30am 17.0 18.2 16.8 99 0.1 N 6 9 3 5 1017.9 1017.7 0.0
08/07:00am 16.5 18.6 16.3 99 0.1 CALM 0 0 0 0 1017.6 1017.4 0.0
08/06:30am 15.7 17.5 15.5 99 0.1 CALM 0 4 0 2 1017.4 1017.2 0.0
08/06:00am 14.8 16.3 14.6 99 0.1 CALM 0 0 0 0 1017.1 1016.9 0.0
08/05:30am 14.5 15.8 14.2 98 0.2 CALM 0 0 0 0 1017.0 1016.8 0.0
08/05:00am 15.0 16.6 14.8 99 0.1 CALM 0 0 0 0 1016.8 1016.6 0.0
08/04:30am 14.9 16.3 14.4 97 0.3 CALM 0 0 0 0 1016.7 1016.5 0.0
08/04:00am 15.3 16.9 15.0 98 0.2 CALM 0 2 0 1 1016.7 1016.5 0.0
08/03:30am 15.7 17.1 15.5 99 0.1 SW 2 6 1 3 1016.9 1016.7 0.0
08/03:00am 15.3 17.0 15.1 99 0.1 CALM 0 0 0 0 1017.0 1016.8 0.0
08/02:30am 15.3 16.9 15.0 98 0.2 CALM 0 0 0 0 1017.2 1017.0 0.0
08/02:00am 15.2 16.0 14.7 97 0.3 SW 4 7 2 4 1017.4 1017.2 0.0
08/01:30am 15.5 16.7 14.9 96 0.3 SW 2 6 1 3 1017.6 1017.4 0.0
08/01:00am 15.9 16.9 15.3 96 0.3 SW 4 7 2 4 1017.8 1017.6 0.0
08/12:30am 15.8 16.2 15.3 97 0.3 SW 7 9 4 5 1017.9 1017.7 0.0
08/12:00am 15.9 16.4 15.1 95 0.5 SW 6 7 3 4 1018.0 1017.8 0.0
 
Date/Time
EDT
Temp
°C
App
Temp
°C
Dew
Point
Rel
Hum
%
Delta-T
°C
Wind Press
QNH
hPa
Press
MSL
hPa
Rain
since 9 am
mm
Dir
 
Spd
km/h
Gust
km/h
Spd
kts
Gust
kts
07/11:30pm 16.4 17.0 15.4 94 0.6 SW 6 7 3 4 1018.0 1017.8 0.0
07/11:00pm 17.4 17.3 15.9 91 0.9 SW 11 13 6 7 1018.0 1017.8 0.0
07/10:30pm 17.5 17.3 15.8 90 1.0 SW 11 13 6 7 1018.1 1017.9 0.0
07/10:00pm 18.3 19.0 16.1 87 1.3 SW 7 7 4 4 1018.0 1017.8 0.0
07/09:30pm 19.1 20.1 16.3 84 1.7 SW 6 7 3 4 1017.7 1017.5 0.0
07/09:00pm 20.1 20.7 15.9 77 2.5 S 7 9 4 5 1017.4 1017.2 0.0
07/08:30pm 20.6 21.2 15.8 74 2.9 SSE 7 9 4 5 1017.0 1016.8 0.0
07/08:00pm 22.2 22.6 16.2 69 3.6 SE 9 13 5 7 1016.7 1016.5 0.0
07/07:30pm 23.5 23.1 16.1 63 4.5 SE 13 19 7 10 1016.3 1016.0 0.0
07/07:00pm 24.6 23.3 15.8 58 5.3 SE 17 22 9 12 1015.9 1015.6 0.0
07/06:30pm 24.8 22.9 15.1 54 5.8 SSE 19 24 10 13 1015.5 1015.2 0.0
07/06:00pm 25.8 23.7 14.6 50 6.7 SE 19 24 10 13 1015.2 1014.9 0.0
07/05:30pm 26.4 24.8 15.1 49 6.8 ESE 17 26 9 14 1015.1 1014.8 0.0
07/05:00pm 26.5 25.1 15.5 50 6.7 SE 17 22 9 12 1015.0 1014.7 0.0
07/04:30pm 26.3 24.1 14.4 48 7.1 ESE 19 26 10 14 1015.0 1014.7 0.0
07/04:00pm 26.0 24.2 14.5 49 6.9 ESE 17 24 9 13 1015.2 1014.9 0.0
07/03:30pm 25.6 23.7 15.3 53 6.2 ESE 19 28 10 15 1015.2 1014.9 0.0
07/03:00pm 26.4 24.6 15.4 50 6.7 ESE 19 35 10 19 1015.4 1015.1 0.0
07/02:30pm 26.4 25.5 16.9 56 5.9 ESE 17 28 9 15 1015.7 1015.4 0.0
07/02:00pm 25.8 23.7 15.2 52 6.4 ESE 20 32 11 17 1016.0 1015.7 0.0
07/01:30pm 26.0 26.5 17.4 59 5.4 ESE 11 19 6 10 1016.1 1015.8 0.0
07/01:00pm 25.5 25.3 17.7 62 4.9 ESE 15 19 8 10 1016.5 1016.2 0.0
07/12:30pm 26.6 27.4 19.0 63 4.9 E 13 19 7 10 1016.7 1016.5 0.0
07/12:00pm 24.7 24.3 16.2 59 5.2 ESE 13 20 7 11 1016.9 1016.7 0.0
07/11:30am 24.2 24.0 16.7 63 4.6 ESE 13 17 7 9 1016.9 1016.7 0.0
07/11:00am 24.3 23.8 16.0 60 5.0 E 13 19 7 10 1017.2 1017.0 0.0
07/10:30am 24.9 24.2 16.3 59 5.3 ESE 15 19 8 10 1017.3 1017.1 0.0
07/10:00am 24.0 24.1 16.5 63 4.6 E 11 17 6 9 1017.4 1017.2 0.0
07/09:30am 22.7 24.0 17.2 71 3.4 NNE 6 9 3 5 1017.6 1017.4 0.0
07/09:00am 23.2 24.5 17.2 69 3.7 E 6 9 3 5 1017.3 1017.1 0.8
07/08:30am 22.0 23.2 17.4 75 2.8 SSE 7 13 4 7 1017.2 1017.0 0.8
07/08:00am 20.1 23.0 18.1 88 1.2 CALM 0 0 0 0 1017.2 1017.0 0.8
07/07:30am 18.8 21.2 18.0 95 0.5 SSE 2 6 1 3 1016.7 1016.5 0.8
07/07:00am 17.6 20.1 17.3 98 0.2 CALM 0 0 0 0 1016.5 1016.2 0.8
07/06:30am 17.2 18.3 16.7 97 0.3 SSW 6 7 3 4 1016.4 1016.1 0.8
07/06:00am 17.6 18.7 17.1 97 0.3 SSE 7 11 4 6 1016.1 1015.8 0.8
07/05:30am 17.5 19.9 17.0 97 0.3 CALM 0 0 0 0 1016.0 1015.7 0.8
07/05:00am 17.5 19.5 17.0 97 0.3 SSW 2 7 1 4 1015.9 1015.6 0.8
07/04:30am 17.9 20.1 17.4 97 0.3 SSE 2 6 1 3 1015.8 1015.5 0.8
07/04:00am 17.5 18.7 16.9 96 0.4 W 6 6 3 3 1015.9 1015.6 0.6
07/03:30am 17.6 19.6 17.0 96 0.4 SSE 2 7 1 4 1016.0 1015.7 0.6
07/03:00am 18.1 19.5 17.3 95 0.5 SW 6 7 3 4 1016.1 1015.8 0.4
07/02:30am 18.6 21.2 17.6 94 0.6 CALM 0 0 0 0 1016.4 1016.1 0.4
07/02:00am 18.5 20.7 17.5 94 0.6 SSE 2 9 1 5 1016.5 1016.2 0.2
07/01:30am 18.1 20.5 17.0 93 0.7 CALM 0 0 0 0 1016.6 1016.3 0.2
07/01:00am 18.8 21.4 17.5 92 0.8 CALM 0 0 0 0 1016.9 1016.7 0.2
07/12:30am 18.9 19.6 17.0 89 1.2 S 9 11 5 6 1016.9 1016.7 0.2
07/12:00am 18.7 20.0 17.5 93 0.7 SSE 7 9 4 5 1017.1 1016.9 0.2
 
Date/Time
EDT
Temp
°C
App
Temp
°C
Dew
Point
Rel
Hum
%
Delta-T
°C
Wind Press
QNH
hPa
Press
MSL
hPa
Rain
since 9 am
mm
Dir
 
Spd
km/h
Gust
km/h
Spd
kts
Gust
kts
06/11:30pm 18.1 18.9 16.3 89 1.1 SSW 7 9 4 5 1017.2 1017.0 0.2
06/11:00pm 18.2 20.0 16.4 89 1.1 SSW 2 7 1 4 1017.4 1017.2 0.2
06/10:30pm 18.6 19.8 16.8 89 1.1 S 6 7 3 4 1017.2 1017.0 0.2
06/10:00pm 19.0 19.9 16.6 86 1.4 SW 7 9 4 5 1017.2 1017.0 0.2
06/09:30pm 19.2 19.8 16.8 86 1.5 WSW 9 11 5 6 1017.1 1016.9 0.2
06/09:00pm 19.7 20.5 16.3 81 2.0 S 7 9 4 5 1016.7 1016.5 0.2

Other Formats:

Comma delimited format used in spreadsheet applications
http://www.bom.gov.au/fwo/IDN60801/IDN60801.95771.axf

JavaScript Object Notation format (JSON) in row-major order
http://www.bom.gov.au/fwo/IDN60801/IDN60801.95771.json